Time;durP1;ratioP1;P1;durP2;ratioP2;P2;SDS_P1;SDS_P2;PMS_P1;PMS_P2;Temp;Humidity;BMP_temperature;BMP_pressure;BME280_temperature;BME280_humidity;BME280_pressure;Samples;Min_cycle;Max_cycle;Signal;HPM_P1;HPM_P2
2022/02/17 00:00:35;;;;;;;0.60;0.37;;;13.50;99.90;;;;;;4976211;28;20479;-86
2022/02/17 00:03:01;;;;;;;0.50;0.30;;;13.50;99.90;;;;;;4973810;28;20439;-86
2022/02/17 00:05:29;;;;;;;1.10;0.40;;;13.50;99.90;;;;;;4961932;28;20455;-86
2022/02/17 00:07:58;;;;;;;0.50;0.40;;;13.60;99.90;;;;;;4959408;28;20499;-87
2022/02/17 00:10:26;;;;;;;0.60;0.40;;;13.70;99.90;;;;;;4958068;28;20537;-87
2022/02/17 00:12:54;;;;;;;0.80;0.50;;;13.80;99.90;;;;;;4964071;28;20442;-85
2022/02/17 00:15:21;;;;;;;0.83;0.40;;;13.80;99.90;;;;;;4958715;28;20839;-86
2022/02/17 00:17:48;;;;;;;0.80;0.40;;;13.90;99.90;;;;;;4972705;29;20826;-85
2022/02/17 00:20:15;;;;;;;0.70;0.40;;;13.90;99.90;;;;;;4960169;28;20591;-86
2022/02/17 00:22:42;;;;;;;0.70;0.40;;;14.00;99.90;;;;;;4958350;28;20463;-86
2022/02/17 00:25:11;;;;;;;0.60;0.40;;;14.00;99.90;;;;;;4957901;28;20441;-86
2022/02/17 00:27:38;;;;;;;1.20;0.30;;;14.00;99.90;;;;;;4957715;28;20494;-86
2022/02/17 00:30:14;;;;;;;0.50;0.30;;;14.00;99.90;;;;;;4957536;28;20481;-86
2022/02/17 00:32:40;;;;;;;0.60;0.40;;;14.00;99.90;;;;;;4957530;29;20461;-86
2022/02/17 00:35:08;;;;;;;0.50;0.30;;;14.00;99.90;;;;;;4957327;28;20455;-86
2022/02/17 00:37:35;;;;;;;0.70;0.43;;;14.10;99.90;;;;;;4957204;28;20450;-86
2022/02/17 00:40:02;;;;;;;1.90;0.47;;;14.00;99.90;;;;;;4959707;28;20470;-87
2022/02/17 00:42:30;;;;;;;0.70;0.50;;;14.00;99.90;;;;;;4957231;29;20451;-87
2022/02/17 00:44:57;;;;;;;0.60;0.33;;;14.00;99.90;;;;;;4969715;28;20445;-86
2022/02/17 00:47:23;;;;;;;0.87;0.30;;;14.00;99.90;;;;;;4977042;28;20487;-86
2022/02/17 00:49:51;;;;;;;0.60;0.30;;;14.10;99.90;;;;;;4976750;28;20470;-87
2022/02/17 00:52:17;;;;;;;0.60;0.40;;;14.10;99.90;;;;;;4974025;29;20480;-87
2022/02/17 00:54:44;;;;;;;0.60;0.40;;;14.10;99.90;;;;;;4960092;28;20448;-86
2022/02/17 00:57:11;;;;;;;0.60;0.40;;;14.10;99.90;;;;;;4969243;28;20451;-87
2022/02/17 00:59:40;;;;;;;0.50;0.30;;;14.00;99.90;;;;;;4959401;28;20479;-87
2022/02/17 01:02:07;;;;;;;1.00;0.47;;;14.10;99.90;;;;;;4957904;28;20458;-87
2022/02/17 01:04:34;;;;;;;0.80;0.47;;;14.00;99.90;;;;;;4958970;28;20445;-87
2022/02/17 01:07:00;;;;;;;0.57;0.30;;;14.00;99.90;;;;;;4957928;28;20463;-87
2022/02/17 01:12:07;;;;;;;0.50;0.40;;;13.90;99.90;;;;;;4955029;29;20482;-87
2022/02/17 01:14:34;;;;;;;2.10;0.40;;;13.80;99.90;;;;;;4966208;29;20515;-88
2022/02/17 01:17:03;;;;;;;0.60;0.40;;;13.70;99.90;;;;;;4966864;29;20442;-88
2022/02/17 01:19:29;;;;;;;0.60;0.40;;;13.50;99.90;;;;;;4957342;29;20937;-87
2022/02/17 01:21:56;;;;;;;0.60;0.37;;;13.40;99.90;;;;;;4956660;29;20445;-87
2022/02/17 01:24:23;;;;;;;0.93;0.40;;;13.40;99.90;;;;;;4955333;29;20454;-87
2022/02/17 01:26:50;;;;;;;0.50;0.40;;;13.40;99.90;;;;;;4955846;29;20449;-88
2022/02/17 01:29:16;;;;;;;0.53;0.30;;;13.30;99.90;;;;;;4966874;29;20494;-88
2022/02/17 01:31:43;;;;;;;0.60;0.40;;;13.30;99.90;;;;;;4974765;29;20472;-88
2022/02/17 01:34:11;;;;;;;0.60;0.40;;;13.30;99.90;;;;;;4972812;29;20449;-88
2022/02/17 01:36:38;;;;;;;1.00;0.60;;;13.20;99.90;;;;;;4962719;29;20458;-88
2022/02/17 01:39:05;;;;;;;2.63;0.40;;;13.30;99.90;;;;;;4961339;29;20446;-87
2022/02/17 01:41:32;;;;;;;0.70;0.40;;;13.30;99.90;;;;;;4965730;29;20479;-88
2022/02/17 01:44:02;;;;;;;0.77;0.40;;;13.20;99.90;;;;;;4976911;29;20438;-88
2022/02/17 01:46:34;;;;;;;0.60;0.50;;;13.20;99.90;;;;;;4961218;29;21026;-88
2022/02/17 01:49:00;;;;;;;0.60;0.40;;;13.10;99.90;;;;;;4956911;29;20545;-88
2022/02/17 01:51:30;;;;;;;0.70;0.40;;;13.10;99.90;;;;;;4955770;29;20468;-88
2022/02/17 01:53:57;;;;;;;0.60;0.40;;;13.10;99.90;;;;;;4955284;29;20838;-88
2022/02/17 01:56:24;;;;;;;0.63;0.40;;;13.10;99.90;;;;;;4954916;28;20453;-88
2022/02/17 01:58:52;;;;;;;0.60;0.40;;;13.10;99.90;;;;;;4959243;29;20446;-88
2022/02/17 02:01:20;;;;;;;0.60;0.30;;;13.00;99.90;;;;;;4955516;29;21004;-87
2022/02/17 02:03:47;;;;;;;0.60;0.40;;;12.80;99.90;;;;;;4954963;29;20453;-88
2022/02/17 02:06:15;;;;;;;0.93;0.40;;;12.70;99.90;;;;;;4955639;29;20444;-88
2022/02/17 02:08:43;;;;;;;1.23;0.60;;;12.70;99.90;;;;;;4955153;29;20521;-88
2022/02/17 02:11:10;;;;;;;0.50;0.30;;;12.70;99.90;;;;;;4955815;29;20473;-88
2022/02/17 02:13:37;;;;;;;0.60;0.40;;;12.60;99.90;;;;;;4954824;29;20842;-87
2022/02/17 02:16:06;;;;;;;0.60;0.30;;;12.60;99.90;;;;;;4955202;29;20452;-88
2022/02/17 02:18:33;;;;;;;1.23;0.40;;;12.60;99.90;;;;;;4954747;29;20875;-89
2022/02/17 02:21:03;;;;;;;0.93;0.40;;;12.70;99.90;;;;;;4955322;29;20474;-87
2022/02/17 02:23:30;;;;;;;0.60;0.40;;;12.70;99.90;;;;;;4957723;29;20484;-88
2022/02/17 02:25:57;;;;;;;0.50;0.40;;;12.60;99.90;;;;;;4955063;29;20480;-88
2022/02/17 02:28:25;;;;;;;0.93;0.30;;;12.70;99.90;;;;;;4956662;29;20486;-88
2022/02/17 02:30:53;;;;;;;1.37;0.47;;;12.70;99.90;;;;;;4967385;28;20477;-88
2022/02/17 02:33:21;;;;;;;0.70;0.50;;;12.70;99.90;;;;;;4955377;29;20457;-88
2022/02/17 02:35:49;;;;;;;0.80;0.50;;;12.70;99.90;;;;;;4954871;29;20448;-88
2022/02/17 02:38:17;;;;;;;0.50;0.30;;;12.60;99.90;;;;;;4954624;29;20445;-88
2022/02/17 02:40:44;;;;;;;1.10;0.40;;;12.50;99.90;;;;;;4954537;29;20471;-88
2022/02/17 02:43:11;;;;;;;1.43;0.50;;;12.50;99.90;;;;;;4955397;29;20464;-88
2022/02/17 02:45:38;;;;;;;0.70;0.40;;;12.50;99.90;;;;;;4954954;29;20524;-88
2022/02/17 02:48:07;;;;;;;1.60;0.40;;;12.50;99.90;;;;;;4956610;29;20999;-88
2022/02/17 02:50:34;;;;;;;0.70;0.50;;;12.50;99.90;;;;;;4957311;29;20476;-89
2022/02/17 02:53:01;;;;;;;1.63;0.50;;;12.50;99.90;;;;;;4968167;29;20480;-88
2022/02/17 02:55:29;;;;;;;1.33;0.40;;;12.50;99.90;;;;;;4959418;29;20440;-88
2022/02/17 02:57:58;;;;;;;0.60;0.40;;;12.50;99.90;;;;;;4960344;29;20453;-88
2022/02/17 03:00:24;;;;;;;0.50;0.30;;;12.50;99.90;;;;;;4955757;29;20479;-88
2022/02/17 03:02:51;;;;;;;0.60;0.40;;;12.50;99.90;;;;;;4955757;29;20993;-88
2022/02/17 03:05:18;;;;;;;0.63;0.47;;;12.50;99.90;;;;;;4963941;29;20457;-87
2022/02/17 03:07:44;;;;;;;0.60;0.50;;;12.50;99.90;;;;;;4958390;28;20442;-88
2022/02/17 03:10:11;;;;;;;0.97;0.40;;;12.60;99.90;;;;;;4959558;29;20484;-88
2022/02/17 03:12:40;;;;;;;0.80;0.37;;;12.60;99.90;;;;;;4960738;29;20537;-88
2022/02/17 03:15:08;;;;;;;0.60;0.40;;;12.60;99.90;;;;;;4966767;29;20480;-88
2022/02/17 03:17:34;;;;;;;1.47;0.43;;;12.50;99.90;;;;;;4964878;29;20465;-88
2022/02/17 03:20:01;;;;;;;1.03;0.40;;;12.50;99.90;;;;;;4964379;29;20472;-88
2022/02/17 03:22:28;;;;;;;0.70;0.40;;;12.60;99.90;;;;;;4978855;28;20464;-88
2022/02/17 03:24:55;;;;;;;0.60;0.30;;;12.60;99.90;;;;;;4979155;29;20460;-88
2022/02/17 03:27:21;;;;;;;0.70;0.40;;;12.60;99.90;;;;;;4976525;29;20513;-88
2022/02/17 03:29:49;;;;;;;0.90;0.40;;;12.60;99.90;;;;;;4975394;29;20508;-87
2022/02/17 03:32:16;;;;;;;0.60;0.40;;;12.60;99.90;;;;;;4970199;29;20445;-87
2022/02/17 03:34:43;;;;;;;0.93;0.40;;;12.60;99.90;;;;;;4972893;29;20507;-88
2022/02/17 03:37:10;;;;;;;0.50;0.40;;;12.50;99.90;;;;;;4979421;29;20446;-88
2022/02/17 03:39:37;;;;;;;0.50;0.30;;;12.60;99.90;;;;;;4967823;29;20456;-88
2022/02/17 03:42:04;;;;;;;0.50;0.30;;;12.60;99.90;;;;;;4961638;29;20509;-87
2022/02/17 03:44:32;;;;;;;0.60;0.40;;;12.60;99.90;;;;;;4961028;29;20453;-87
2022/02/17 03:47:00;;;;;;;0.50;0.30;;;12.70;99.90;;;;;;4958103;29;20446;-88
2022/02/17 03:49:27;;;;;;;0.50;0.33;;;12.70;99.90;;;;;;4958160;29;20860;-88
2022/02/17 03:51:53;;;;;;;0.70;0.33;;;12.70;99.90;;;;;;4962025;29;20457;-88
2022/02/17 03:54:20;;;;;;;0.50;0.40;;;12.70;99.90;;;;;;4970418;28;20460;-88
2022/02/17 03:56:47;;;;;;;0.50;0.30;;;12.70;99.90;;;;;;4962171;29;20458;-88
2022/02/17 03:59:14;;;;;;;2.10;0.30;;;12.70;99.90;;;;;;4960121;29;20445;-87
2022/02/17 04:01:41;;;;;;;0.50;0.33;;;12.80;99.90;;;;;;4959588;29;20469;-88
2022/02/17 04:04:11;;;;;;;0.50;0.30;;;12.80;99.90;;;;;;4961025;29;20453;-88
2022/02/17 04:06:38;;;;;;;0.50;0.30;;;12.80;99.90;;;;;;4957755;29;20825;-88
2022/02/17 04:09:06;;;;;;;0.50;0.33;;;12.90;99.90;;;;;;4957414;29;20492;-88
2022/02/17 04:11:33;;;;;;;0.50;0.30;;;12.90;99.90;;;;;;4960669;29;20477;-88
2022/02/17 04:14:00;;;;;;;1.50;0.40;;;12.90;99.90;;;;;;4958093;29;20452;-88
2022/02/17 04:16:26;;;;;;;0.50;0.30;;;13.00;99.90;;;;;;4958895;29;20460;-88
2022/02/17 04:18:53;;;;;;;0.60;0.40;;;12.90;99.90;;;;;;4960177;29;20453;-88
2022/02/17 04:21:23;;;;;;;0.60;0.40;;;12.90;99.90;;;;;;4956487;28;20477;-88
2022/02/17 04:23:50;;;;;;;0.60;0.33;;;12.90;99.90;;;;;;4958413;29;20449;-88
2022/02/17 04:26:19;;;;;;;0.80;0.40;;;12.90;99.90;;;;;;4959021;29;20452;-88
2022/02/17 04:28:47;;;;;;;0.70;0.40;;;12.90;99.90;;;;;;4958746;29;20485;-88
2022/02/17 04:31:14;;;;;;;0.60;0.30;;;13.00;99.90;;;;;;4958150;29;20830;-88
2022/02/17 04:33:43;;;;;;;0.67;0.50;;;13.00;99.90;;;;;;4957790;29;20472;-87
2022/02/17 04:36:10;;;;;;;0.70;0.60;;;13.00;99.90;;;;;;4959382;29;20469;-88
2022/02/17 04:38:38;;;;;;;1.10;0.40;;;13.00;99.90;;;;;;4962538;29;20808;-87
2022/02/17 04:43:49;;;;;;;0.50;0.33;;;12.90;99.90;;;;;;4958168;29;20542;-88
2022/02/17 04:46:16;;;;;;;0.70;0.50;;;12.70;99.90;;;;;;4958432;29;20837;-88
2022/02/17 04:48:43;;;;;;;0.90;0.37;;;12.60;99.90;;;;;;4957289;29;20490;-88
2022/02/17 04:51:10;;;;;;;0.50;0.30;;;12.60;99.90;;;;;;4957543;29;20476;-88
2022/02/17 04:53:38;;;;;;;2.50;0.50;;;12.60;99.90;;;;;;4957017;29;20457;-87
2022/02/17 04:56:05;;;;;;;0.53;0.30;;;12.70;99.90;;;;;;4965102;29;20798;-89
2022/02/17 04:58:32;;;;;;;0.50;0.40;;;12.70;99.90;;;;;;4957380;29;20438;-88
2022/02/17 05:00:59;;;;;;;0.50;0.40;;;12.80;99.90;;;;;;4956452;29;20841;-88
2022/02/17 05:03:26;;;;;;;0.60;0.40;;;12.80;99.90;;;;;;4956602;28;20457;-88
2022/02/17 05:05:53;;;;;;;0.67;0.40;;;12.80;99.90;;;;;;4955540;29;20454;-89
2022/02/17 05:08:20;;;;;;;1.10;0.60;;;12.80;99.90;;;;;;4960094;29;20446;-88
2022/02/17 05:10:49;;;;;;;0.80;0.30;;;12.80;99.90;;;;;;4957714;29;20494;-88
2022/02/17 05:13:16;;;;;;;0.50;0.40;;;12.90;99.90;;;;;;4979361;28;20438;-87
2022/02/17 05:15:44;;;;;;;0.60;0.30;;;12.90;99.90;;;;;;4974834;28;20760;-88
2022/02/17 05:18:11;;;;;;;0.70;0.40;;;12.90;99.90;;;;;;4969836;29;20469;-88
2022/02/17 05:20:39;;;;;;;0.60;0.40;;;12.90;99.90;;;;;;4968892;29;20474;-88
2022/02/17 05:23:06;;;;;;;0.50;0.30;;;12.80;99.90;;;;;;4963105;29;20509;-88
2022/02/17 05:25:33;;;;;;;1.30;0.37;;;12.70;99.90;;;;;;4958165;29;20446;-88
2022/02/17 05:28:01;;;;;;;1.77;0.50;;;12.70;99.90;;;;;;4966265;29;20464;-88
2022/02/17 05:30:28;;;;;;;0.50;0.30;;;12.70;99.90;;;;;;4976805;29;20490;-88
2022/02/17 05:32:55;;;;;;;0.57;0.40;;;12.80;99.90;;;;;;4959609;28;20502;-88
2022/02/17 05:35:22;;;;;;;0.60;0.43;;;12.80;99.90;;;;;;4963015;29;20449;-88
2022/02/17 05:37:49;;;;;;;0.67;0.40;;;12.90;99.90;;;;;;4957442;29;20534;-88
2022/02/17 05:40:15;;;;;;;1.63;0.50;;;12.90;99.90;;;;;;4956921;29;20985;-89
2022/02/17 05:42:42;;;;;;;0.60;0.40;;;13.00;99.90;;;;;;4963142;29;20464;-88
2022/02/17 05:45:11;;;;;;;1.53;0.47;;;12.90;99.90;;;;;;4955936;29;20455;-88
2022/02/17 05:47:41;;;;;;;0.90;0.60;;;12.80;99.90;;;;;;4955840;29;20839;-88
2022/02/17 05:50:08;;;;;;;1.07;0.50;;;12.70;99.90;;;;;;4955656;29;20501;-88
2022/02/17 05:52:35;;;;;;;1.07;0.67;;;12.60;99.90;;;;;;4955239;29;20449;-88
2022/02/17 05:55:02;;;;;;;5.60;1.07;;;12.50;99.90;;;;;;4956294;29;20886;-88
2022/02/17 05:57:28;;;;;;;2.37;1.13;;;12.50;99.90;;;;;;4957195;29;20454;-88
2022/02/17 05:59:55;;;;;;;3.47;0.80;;;12.50;99.90;;;;;;4968410;29;20457;-88
2022/02/17 06:02:23;;;;;;;6.53;1.43;;;12.40;99.90;;;;;;4974368;29;20474;-88
2022/02/17 06:04:50;;;;;;;2.40;1.00;;;12.30;99.90;;;;;;4959420;29;20454;-89
2022/02/17 06:07:17;;;;;;;3.97;1.10;;;12.30;99.90;;;;;;4975701;29;20446;-88
2022/02/17 06:09:44;;;;;;;5.20;1.27;;;12.30;99.90;;;;;;4962117;29;20482;-88
2022/02/17 06:12:11;;;;;;;1.33;0.80;;;12.40;99.90;;;;;;4956892;29;20445;-88
2022/02/17 06:14:38;;;;;;;5.33;1.13;;;12.50;99.90;;;;;;4955277;29;20460;-88
2022/02/17 06:17:05;;;;;;;6.83;1.20;;;12.60;99.90;;;;;;4956238;29;20462;-89
2022/02/17 06:19:33;;;;;;;2.67;1.00;;;12.60;99.90;;;;;;4955950;29;20453;-88
2022/02/17 06:22:00;;;;;;;3.30;1.13;;;12.70;99.90;;;;;;4957003;29;20454;-88
2022/02/17 06:24:27;;;;;;;4.83;1.70;;;12.70;99.90;;;;;;4954577;29;20483;-89
2022/02/17 06:26:53;;;;;;;3.30;1.50;;;12.70;99.90;;;;;;4955078;29;20463;-88
2022/02/17 06:29:20;;;;;;;3.40;1.50;;;12.60;99.90;;;;;;4955432;29;20488;-88
2022/02/17 06:31:47;;;;;;;3.03;1.30;;;12.70;99.90;;;;;;4957352;29;20481;-88
2022/02/17 06:34:14;;;;;;;2.73;1.20;;;12.70;99.90;;;;;;4960554;29;20446;-88
2022/02/17 06:36:44;;;;;;;5.30;1.77;;;12.60;99.90;;;;;;4966119;29;20820;-88
2022/02/17 06:39:11;;;;;;;5.77;1.43;;;12.60;99.90;;;;;;4970927;28;20450;-88
2022/02/17 06:41:38;;;;;;;4.60;1.47;;;12.60;99.90;;;;;;4957101;29;20474;-88
2022/02/17 06:44:08;;;;;;;4.57;1.33;;;12.60;99.90;;;;;;4962163;28;20457;-89
2022/02/17 06:46:38;;;;;;;4.10;1.43;;;12.60;99.90;;;;;;4967674;29;20480;-89
2022/02/17 06:49:05;;;;;;;8.10;2.30;;;12.60;99.90;;;;;;4968861;29;20453;-89
2022/02/17 06:51:32;;;;;;;12.90;3.23;;;12.60;99.90;;;;;;4968934;29;20466;-90
2022/02/17 06:54:10;;;;;;;3.07;1.37;;;12.60;99.90;;;;;;4968587;29;20457;-89
2022/02/17 06:56:37;;;;;;;4.03;2.23;;;12.60;99.90;;;;;;4963494;29;20458;-88
2022/02/17 06:59:04;;;;;;;6.70;1.67;;;12.60;99.90;;;;;;4958532;29;20963;-89
2022/02/17 07:01:30;;;;;;;7.33;1.50;;;12.60;99.90;;;;;;4961832;29;20482;-88
2022/02/17 07:03:57;;;;;;;4.23;1.57;;;12.50;99.90;;;;;;4975493;29;20439;-88
2022/02/17 07:06:24;;;;;;;4.30;1.70;;;12.60;99.90;;;;;;4976368;28;20440;-89
2022/02/17 07:08:51;;;;;;;5.23;1.90;;;12.60;99.90;;;;;;4963964;29;20948;-88
2022/02/17 07:11:19;;;;;;;9.37;2.00;;;12.50;99.90;;;;;;4979820;23;20525;-87
2022/02/17 07:13:46;;;;;;;5.83;2.33;;;12.60;99.90;;;;;;4965786;29;20424;-88
2022/02/17 07:16:13;;;;;;;8.33;2.30;;;12.60;99.90;;;;;;4962674;29;20506;-88
2022/02/17 07:18:44;;;;;;;5.80;1.90;;;12.60;99.90;;;;;;4964931;29;20451;-88
2022/02/17 07:21:11;;;;;;;5.97;2.10;;;12.60;99.90;;;;;;4963027;28;20465;-88
2022/02/17 07:23:38;;;;;;;9.37;2.70;;;12.70;99.90;;;;;;4963908;29;20450;-88
2022/02/17 07:26:05;;;;;;;7.70;2.70;;;12.70;99.90;;;;;;4968981;28;20454;-88
2022/02/17 07:28:33;;;;;;;7.73;2.30;;;12.60;99.90;;;;;;4974757;29;20429;-89
2022/02/17 07:31:00;;;;;;;8.47;2.73;;;12.60;99.90;;;;;;4975153;28;20501;-88
2022/02/17 07:33:27;;;;;;;8.30;2.30;;;12.60;99.90;;;;;;4962785;29;20459;-88
2022/02/17 07:35:54;;;;;;;6.13;2.03;;;12.70;99.90;;;;;;4963528;29;20453;-88
2022/02/17 07:38:20;;;;;;;7.90;2.63;;;12.70;99.90;;;;;;4962787;28;20459;-89
2022/02/17 07:40:48;;;;;;;8.93;2.13;;;12.70;99.90;;;;;;4962288;28;20474;-89
2022/02/17 07:43:14;;;;;;;6.13;2.50;;;12.70;99.90;;;;;;4963168;28;20454;-88
2022/02/17 07:45:43;;;;;;;6.27;2.20;;;12.70;99.90;;;;;;4963134;29;20941;-88
2022/02/17 07:48:10;;;;;;;5.37;1.80;;;12.60;99.90;;;;;;4961636;29;20449;-88
2022/02/17 07:50:36;;;;;;;6.50;2.10;;;12.50;99.90;;;;;;4963205;28;20719;-88
2022/02/17 07:53:03;;;;;;;10.40;2.70;;;12.50;99.90;;;;;;4961966;29;20457;-88
2022/02/17 07:55:30;;;;;;;6.47;2.00;;;12.50;99.90;;;;;;4961033;28;20449;-89
2022/02/17 07:58:01;;;;;;;7.80;3.20;;;12.50;99.90;;;;;;4969825;28;20442;-89
2022/02/17 08:00:28;;;;;;;6.00;1.97;;;12.50;99.90;;;;;;4979724;28;20481;-89
2022/02/17 08:02:56;;;;;;;5.20;2.03;;;12.60;99.90;;;;;;4971118;28;20456;-89
2022/02/17 08:05:23;;;;;;;8.53;2.33;;;12.60;99.90;;;;;;4978859;28;20513;-89
2022/02/17 08:07:50;;;;;;;5.67;1.80;;;12.60;99.90;;;;;;4967468;29;20463;-88
2022/02/17 08:10:17;;;;;;;4.33;2.30;;;12.60;99.50;;;;;;4973813;28;20501;-88
2022/02/17 08:12:45;;;;;;;7.17;1.80;;;12.70;98.90;;;;;;4967514;29;20454;-88
2022/02/17 08:15:12;;;;;;;6.20;1.77;;;12.80;98.90;;;;;;4964256;29;20460;-88
2022/02/17 08:17:39;;;;;;;6.00;2.03;;;12.80;98.30;;;;;;4962759;28;20463;-88
2022/02/17 08:20:17;;;;;;;5.03;2.33;;;12.90;98.10;;;;;;4964110;28;20452;-90
2022/02/17 08:22:49;;;;;;;3.53;1.73;;;12.90;97.70;;;;;;4971734;28;20457;-88
2022/02/17 08:25:16;;;;;;;5.53;2.33;;;13.00;97.80;;;;;;4980679;28;20427;-89
2022/02/17 08:27:43;;;;;;;5.13;1.93;;;13.00;97.30;;;;;;4980651;28;20453;-89
2022/02/17 08:30:11;;;;;;;3.87;1.60;;;13.10;97.20;;;;;;4980351;28;20484;-89
2022/02/17 08:32:38;;;;;;;6.60;2.20;;;13.20;97.10;;;;;;4979513;28;20633;-88
2022/02/17 08:35:07;;;;;;;7.33;2.87;;;13.80;96.70;;;;;;4968108;29;20940;-89
2022/02/17 08:37:35;;;;;;;8.50;2.93;;;14.70;95.20;;;;;;4980396;28;20464;-90
2022/02/17 08:40:03;;;;;;;6.40;3.20;;;15.70;93.50;;;;;;4979982;28;20433;-89
2022/02/17 08:42:29;;;;;;;7.63;2.17;;;17.20;92.30;;;;;;4980114;28;20428;-89
2022/02/17 08:44:56;;;;;;;4.30;1.90;;;18.30;87.90;;;;;;4966802;28;20451;-88
2022/02/17 08:47:23;;;;;;;8.40;3.03;;;18.60;83.90;;;;;;4966008;29;20548;-88
2022/02/17 08:49:50;;;;;;;9.33;2.20;;;19.10;81.50;;;;;;4960358;28;20449;-87
2022/02/17 08:52:17;;;;;;;9.60;3.00;;;18.90;78.40;;;;;;4960268;28;20473;-88
2022/02/17 08:54:46;;;;;;;6.30;2.60;;;18.90;77.10;;;;;;4959891;28;20553;-88
2022/02/17 08:57:13;;;;;;;5.93;2.63;;;17.90;73.20;;;;;;4960412;29;20520;-88
2022/02/17 08:59:40;;;;;;;7.60;2.80;;;17.30;72.40;;;;;;4959797;29;20456;-87
2022/02/17 09:02:07;;;;;;;9.43;4.00;;;16.50;73.10;;;;;;4962448;28;20497;-88
2022/02/17 09:04:33;;;;;;;9.40;3.87;;;16.40;74.30;;;;;;4965922;28;20947;-89
2022/02/17 09:07:00;;;;;;;10.97;3.67;;;16.40;75.60;;;;;;4965933;28;20457;-88
2022/02/17 09:09:27;;;;;;;5.27;3.10;;;16.50;76.30;;;;;;4961119;29;20460;-88
2022/02/17 09:11:55;;;;;;;10.07;4.10;;;17.00;75.70;;;;;;4959915;28;20496;-89
2022/02/17 09:14:22;;;;;;;8.17;3.00;;;17.30;75.00;;;;;;4976920;28;20444;-88
2022/02/17 09:16:50;;;;;;;9.43;3.30;;;16.80;74.20;;;;;;4971499;28;20442;-88
2022/02/17 09:19:17;;;;;;;7.53;3.10;;;16.70;75.70;;;;;;4965857;28;20485;-89
2022/02/17 09:21:44;;;;;;;6.80;2.70;;;16.90;75.50;;;;;;4960853;28;20477;-88
2022/02/17 09:24:11;;;;;;;12.33;3.27;;;17.40;74.60;;;;;;4960207;29;20464;-89
2022/02/17 09:26:38;;;;;;;7.77;2.60;;;17.40;73.60;;;;;;4959807;29;20471;-88
2022/02/17 09:29:08;;;;;;;6.07;2.73;;;17.40;73.30;;;;;;4959108;29;20818;-88
2022/02/17 09:31:35;;;;;;;11.00;2.90;;;17.30;73.20;;;;;;4959184;28;20485;-88
2022/02/17 09:34:01;;;;;;;10.23;3.10;;;17.00;74.10;;;;;;4957678;28;20465;-88
2022/02/17 09:36:28;;;;;;;12.20;3.17;;;16.50;75.80;;;;;;4966095;29;20464;-88
2022/02/17 09:38:56;;;;;;;8.13;2.90;;;16.50;76.60;;;;;;4965771;29;20441;-88
2022/02/17 09:41:23;;;;;;;7.70;2.80;;;16.30;76.50;;;;;;4962912;28;20465;-88
2022/02/17 09:43:52;;;;;;;9.50;3.67;;;16.50;76.50;;;;;;4958022;28;20949;-88
2022/02/17 09:46:21;;;;;;;6.93;3.30;;;16.70;74.90;;;;;;4967006;29;20531;-88
2022/02/17 09:48:55;;;;;;;12.30;4.20;;;17.10;74.00;;;;;;4962250;28;20945;-88
2022/02/17 09:51:23;;;;;;;7.93;4.00;;;17.80;73.30;;;;;;4965579;28;20584;-87
2022/02/17 09:53:50;;;;;;;8.60;2.63;;;18.10;72.90;;;;;;4958554;29;20452;-88
2022/02/17 09:56:18;;;;;;;12.23;4.00;;;18.20;72.90;;;;;;4968270;29;20484;-87
2022/02/17 09:58:45;;;;;;;10.83;4.17;;;17.80;71.20;;;;;;4961078;29;20456;-88
2022/02/17 10:01:17;;;;;;;8.40;3.07;;;17.50;72.30;;;;;;4959434;28;20465;-88
2022/02/17 10:03:46;;;;;;;10.07;4.10;;;17.50;69.90;;;;;;4959468;29;20457;-88
2022/02/17 10:06:15;;;;;;;9.83;4.50;;;16.40;70.70;;;;;;4958996;29;20457;-88
2022/02/17 10:08:43;;;;;;;12.70;3.43;;;15.70;73.50;;;;;;4959312;29;20455;-88
2022/02/17 10:11:27;;;;;;;9.10;3.43;;;15.20;76.10;;;;;;4958558;28;21011;-87
2022/02/17 10:14:01;;;;;;;14.03;5.03;;;14.80;78.00;;;;;;4957704;29;20448;-88
2022/02/17 10:16:28;;;;;;;12.10;4.40;;;14.80;78.90;;;;;;4957311;28;20552;-88
2022/02/17 10:19:09;;;;;;;15.53;3.90;;;14.60;79.80;;;;;;4956942;28;20449;-88
2022/02/17 10:21:36;;;;;;;7.43;2.53;;;14.40;79.40;;;;;;4959109;28;21014;-88
2022/02/17 10:24:03;;;;;;;14.20;4.67;;;14.10;80.00;;;;;;4958855;29;20487;-88
2022/02/17 10:26:30;;;;;;;10.70;3.50;;;13.80;83.20;;;;;;4958189;29;20462;-88
2022/02/17 10:28:59;;;;;;;11.77;3.60;;;13.30;85.80;;;;;;4957593;29;20537;-88
2022/02/17 10:31:28;;;;;;;11.10;3.40;;;13.10;86.80;;;;;;4957405;28;20524;-88
2022/02/17 10:33:58;;;;;;;9.60;3.73;;;13.00;90.00;;;;;;4958104;28;20537;-89
2022/02/17 10:36:34;;;;;;;12.83;4.80;;;13.60;89.40;;;;;;4958210;29;20453;-88
2022/02/17 10:39:10;;;;;;;9.60;4.37;;;14.00;87.70;;;;;;4958076;29;20463;-88
2022/02/17 10:41:48;;;;;;;11.83;3.40;;;14.30;87.40;;;;;;4962653;28;20458;-89
2022/02/17 10:44:15;;;;;;;12.60;3.57;;;14.10;86.80;;;;;;4976782;28;20438;-88
2022/02/17 10:46:41;;;;;;;14.83;3.60;;;14.00;87.90;;;;;;4971761;28;20506;-89
2022/02/17 10:49:13;;;;;;;6.50;2.70;;;16.00;85.60;;;;;;4976886;28;20504;-90
2022/02/17 10:51:41;;;;;;;11.20;3.93;;;18.30;77.70;;;;;;4973921;28;20493;-88
2022/02/17 10:54:08;;;;;;;9.53;3.50;;;19.70;71.30;;;;;;4973316;29;20524;-89
2022/02/17 10:56:38;;;;;;;9.40;2.67;;;21.20;67.40;;;;;;4965874;28;20459;-89
2022/02/17 11:00:00;;;;;;;8.27;3.90;;;22.40;62.00;;;;;;4961074;28;20459;-88
2022/02/17 11:01:55;;;;;;;7.87;3.97;;;22.80;59.30;;;;;;4963388;28;21002;-89
2022/02/17 11:04:23;;;;;;;9.10;3.47;;;23.00;57.40;;;;;;4958629;29;20446;-89
2022/02/17 11:06:52;;;;;;;7.80;2.80;;;23.60;56.50;;;;;;4958999;28;20445;-88
2022/02/17 11:09:19;;;;;;;8.00;3.30;;;23.10;55.20;;;;;;4958138;29;20552;-88
2022/02/17 11:11:50;;;;;;;10.90;4.70;;;22.00;55.80;;;;;;4957838;28;20496;-88
2022/02/17 11:14:17;;;;;;;10.93;3.87;;;22.80;55.50;;;;;;4958781;29;20449;-88
2022/02/17 11:16:44;;;;;;;9.37;3.13;;;21.70;54.80;;;;;;4958044;28;20778;-87
2022/02/17 11:19:11;;;;;;;6.80;2.70;;;21.30;54.90;;;;;;4957932;29;20952;-88
2022/02/17 11:21:43;;;;;;;6.50;3.20;;;21.60;54.60;;;;;;4957173;28;20978;-88
2022/02/17 11:24:09;;;;;;;14.20;4.93;;;21.90;53.60;;;;;;4957349;29;20453;-88
2022/02/17 11:26:36;;;;;;;13.17;3.87;;;20.70;54.50;;;;;;4956957;29;20445;-88
2022/02/17 11:29:25;;;;;;;9.43;4.30;;;19.20;55.10;;;;;;4958486;28;20448;-89
2022/02/17 11:31:55;;;;;;;8.97;3.23;;;18.80;57.70;;;;;;4962017;28;20537;-89
2022/02/17 11:34:35;;;;;;;9.50;3.40;;;20.00;56.40;;;;;;4961737;29;20554;-89
2022/02/17 11:37:42;;;;;;;12.73;4.00;;;20.80;53.70;;;;;;4962586;29;20446;-88
2022/02/17 11:40:10;;;;;;;9.20;3.90;;;21.10;51.90;;;;;;4962202;28;20466;-89
2022/02/17 11:42:42;;;;;;;9.33;4.47;;;21.60;52.00;;;;;;4963045;28;20529;-88
2022/02/17 11:45:11;;;;;;;9.30;3.43;;;22.30;50.60;;;;;;4961854;29;20473;-89
2022/02/17 11:48:01;;;;;;;12.00;3.70;;;23.00;49.30;;;;;;4966268;28;20457;-90
2022/02/17 11:50:30;;;;;;;11.10;4.23;;;23.60;48.20;;;;;;4967844;28;21091;-88
2022/02/17 11:53:24;;;;;;;9.97;3.17;;;23.50;47.30;;;;;;4963104;29;21004;-88
2022/02/17 11:55:51;;;;;;;12.30;3.70;;;22.20;46.40;;;;;;4964101;29;20725;-88
2022/02/17 11:58:43;;;;;;;10.27;3.87;;;23.00;47.90;;;;;;4959750;28;20804;-89
2022/02/17 12:01:37;;;;;;;8.83;3.27;;;22.60;46.90;;;;;;4959307;28;20562;-87
2022/02/17 12:04:06;;;;;;;9.70;3.50;;;22.00;46.90;;;;;;4959757;29;20453;-88
2022/02/17 12:06:33;;;;;;;15.40;3.10;;;21.90;48.00;;;;;;4972036;29;20541;-89
2022/02/17 12:09:01;;;;;;;10.73;3.40;;;22.70;47.20;;;;;;4977685;29;20460;-88
2022/02/17 12:11:34;;;;;;;6.90;3.83;;;22.90;45.90;;;;;;4964072;28;20476;-88
2022/02/17 12:14:04;;;;;;;17.80;3.80;;;22.70;46.40;;;;;;4973626;29;20453;-89
2022/02/17 12:16:36;;;;;;;8.30;4.30;;;22.80;46.50;;;;;;4967185;29;20688;-88
2022/02/17 12:19:13;;;;;;;15.00;4.63;;;22.40;46.70;;;;;;4961320;29;20451;-88
2022/02/17 12:21:41;;;;;;;10.60;5.17;;;22.40;47.80;;;;;;4960450;28;20453;-88
2022/02/17 12:24:10;;;;;;;13.07;4.17;;;22.30;47.70;;;;;;4964147;28;20516;-88
2022/02/17 12:26:43;;;;;;;13.10;4.20;;;21.60;48.70;;;;;;4961892;29;20449;-88
2022/02/17 12:29:26;;;;;;;12.03;4.43;;;21.00;49.70;;;;;;4964572;29;20456;-88
2022/02/17 12:31:54;;;;;;;13.10;5.13;;;21.90;50.00;;;;;;4964730;28;20484;-89
2022/02/17 12:34:21;;;;;;;9.53;4.40;;;22.70;48.00;;;;;;4979689;28;20476;-91
2022/02/17 12:36:48;;;;;;;13.60;4.00;;;23.00;47.90;;;;;;4975345;28;20469;-88
2022/02/17 12:39:17;;;;;;;10.67;4.30;;;22.50;46.00;;;;;;4964418;29;20464;-88
2022/02/17 12:42:06;;;;;;;9.20;3.47;;;20.60;47.10;;;;;;4974497;28;20470;-90
2022/02/17 12:44:35;;;;;;;11.93;3.90;;;19.50;48.70;;;;;;5093823;23;20553;-88
2022/02/17 12:47:02;;;;;;;8.40;4.07;;;19.10;49.50;;;;;;4969590;28;20492;-90
2022/02/17 12:49:33;;;;;;;10.67;3.57;;;19.00;50.80;;;;;;4968541;28;20453;-89
2022/02/17 12:52:11;;;;;;;15.20;5.10;;;19.20;51.20;;;;;;4972429;28;20521;-89
2022/02/17 12:54:58;;;;;;;11.43;3.53;;;18.50;51.50;;;;;;4976872;28;20454;-90
2022/02/17 12:57:28;;;;;;;10.80;3.87;;;18.30;52.10;;;;;;4989142;23;20564;-87